Danville, Washington
Current Conditions -  °F | °C
As of 9:00 PM on Thursday 30 Oct 2014 (Local Time) from CYCG Reporting Station
Overcast Overcast  
Wind Chill:   Ceiling: 5500
Heat Index:   Visibility: 15mi
Dew Point:   Wind: 8mph
Humidity: 87%   Direction: 360°N
Pressure: 29.93"   Gusts: NA
Location:  48.99°N, 118.51°W
Report Text: CYCG 310400Z 36007KT 15SM FEW020 BKN055 OVC130 09/07 A2993 RMK SC1SC5AC2 LAST OBS/NEXT 311300 UTC SLP142
Loading
Personal Weather Stations






























Interactive Weather Map
Tropical Storm Tracking
New forecast layout! Learn more

10-Day Weather Forecast

Advertisements
Track Severe Weather on mobile